Time;durP1;ratioP1;P1;durP2;ratioP2;P2;SDS_P1;SDS_P2;PMS_P1;PMS_P2;Temp;Humidity;BMP_temperature;BMP_pressure;BME280_temperature;BME280_humidity;BME280_pressure;Samples;Min_cycle;Max_cycle;Signal;HPM_P1;HPM_P2
2021/11/28 00:00:46;;;;;;;21.33;12.65;;;;;;;8.73;56.82;99483.38;5024997;28;20045;-80
2021/11/28 00:03:14;;;;;;;22.70;13.05;;;;;;;8.65;57.04;99489.28;5031333;23;20065;-51
2021/11/28 00:05:41;;;;;;;22.60;12.32;;;;;;;8.59;57.37;99478.84;5023186;28;20128;-54
2021/11/28 00:11:05;;;;;;;25.27;14.10;;;;;;;8.39;58.16;99496.44;4985961;28;20499;-52
2021/11/28 00:13:47;;;;;;;23.40;13.05;;;;;;;8.36;57.86;99486.28;5022139;28;20038;-54
2021/11/28 00:16:14;;;;;;;19.38;12.20;;;;;;;8.32;58.44;99489.72;5024831;23;20022;-90
2021/11/28 00:18:40;;;;;;;21.13;12.57;;;;;;;8.28;58.22;99489.44;5026650;28;20026;-88
2021/11/28 00:21:09;;;;;;;20.98;12.57;;;;;;;8.23;58.28;99488.63;5026693;28;20048;-87
2021/11/28 00:23:34;;;;;;;25.95;14.63;;;;;;;8.20;58.58;99489.94;5026147;28;20649;-87
2021/11/28 00:26:01;;;;;;;23.15;12.90;;;;;;;8.09;58.88;99494.47;5036331;28;20037;-88
2021/11/28 00:28:27;;;;;;;22.20;12.93;;;;;;;7.98;59.24;99492.00;5030702;28;20060;-87
2021/11/28 00:30:53;;;;;;;23.52;13.60;;;;;;;7.93;59.37;99500.00;5013878;28;20065;-87
2021/11/28 00:33:19;;;;;;;22.55;12.23;;;;;;;7.82;59.45;99507.16;5024954;28;20079;-86
2021/11/28 00:35:55;;;;;;;20.95;12.48;;;;;;;7.76;60.13;99516.19;5022857;28;20033;-87
2021/11/28 00:38:20;;;;;;;22.88;12.52;;;;;;;7.82;59.66;99512.47;5024307;28;20054;-87
2021/11/28 00:40:46;;;;;;;25.00;13.38;;;;;;;7.82;59.79;99517.81;5019984;28;20053;-87
2021/11/28 00:43:11;;;;;;;23.35;12.65;;;;;;;7.77;59.82;99515.94;5032803;28;20028;-87
2021/11/28 00:45:37;;;;;;;22.10;12.57;;;;;;;7.72;60.02;99517.75;5023968;28;20025;-87
2021/11/28 00:48:04;;;;;;;18.92;12.27;;;;;;;7.69;59.95;99507.59;5032696;28;20030;-87
2021/11/28 00:50:44;;;;;;;18.98;11.85;;;;;;;7.65;60.20;99502.00;5031288;28;20462;-87
2021/11/28 00:53:11;;;;;;;19.67;12.10;;;;;;;7.64;59.93;99510.25;5048056;28;20570;-87
2021/11/28 00:55:37;;;;;;;21.08;12.32;;;;;;;7.63;60.16;99508.66;5032431;28;20025;-87
2021/11/28 00:58:06;;;;;;;18.30;12.18;;;;;;;7.59;60.57;99508.38;5031283;28;20039;-87
2021/11/28 01:00:31;;;;;;;23.95;12.95;;;;;;;7.59;60.38;99505.72;5032526;28;20045;-87
2021/11/28 01:02:59;;;;;;;19.88;11.85;;;;;;;7.55;60.50;99505.44;5031329;28;20060;-87
2021/11/28 01:05:25;;;;;;;19.60;11.63;;;;;;;7.55;60.56;99502.75;5031493;28;20032;-87
2021/11/28 01:08:25;;;;;;;20.92;12.57;;;;;;;7.46;60.90;99498.97;5032482;28;20352;-88
2021/11/28 01:10:51;;;;;;;22.23;11.77;;;;;;;7.51;60.65;99498.97;5032245;28;20030;-86
2021/11/28 01:13:18;;;;;;;20.67;12.38;;;;;;;7.49;60.81;99493.09;5031135;28;20083;-87
2021/11/28 01:15:43;;;;;;;20.75;12.32;;;;;;;7.47;61.10;99499.75;5031147;28;20028;-87
2021/11/28 01:18:09;;;;;;;23.50;12.95;;;;;;;7.43;61.15;99499.47;5031143;28;20034;-87
2021/11/28 01:20:54;;;;;;;18.15;11.18;;;;;;;7.32;61.11;99500.47;5030740;28;20586;-87
2021/11/28 01:23:19;;;;;;;22.13;12.18;;;;;;;7.37;61.23;99505.03;5026876;28;20025;-87
2021/11/28 01:25:45;;;;;;;23.23;12.50;;;;;;;7.28;61.32;99513.50;5024808;28;20029;-87
2021/11/28 01:28:10;;;;;;;20.20;10.45;;;;;;;7.23;61.66;99518.81;5025050;28;20073;-88
2021/11/28 01:30:36;;;;;;;23.70;12.80;;;;;;;7.19;61.33;99525.72;5033951;28;20044;-87
2021/11/28 01:33:02;;;;;;;19.42;11.23;;;;;;;7.15;61.71;99519.25;5020166;28;20534;-87
2021/11/28 01:35:27;;;;;;;17.67;10.70;;;;;;;7.10;61.54;99513.91;5030033;28;20029;-87
2021/11/28 01:37:57;;;;;;;21.25;12.38;;;;;;;7.04;62.28;99517.59;5027343;28;20025;-87
2021/11/28 01:40:23;;;;;;;20.25;12.07;;;;;;;7.01;61.87;99519.97;5032713;28;20041;-88
2021/11/28 01:42:52;;;;;;;22.40;11.85;;;;;;;6.95;61.78;99524.44;5030458;28;20541;-87
2021/11/28 01:45:21;;;;;;;22.90;12.90;;;;;;;6.91;61.89;99520.69;5033000;28;20509;-87
2021/11/28 01:47:47;;;;;;;20.65;11.52;;;;;;;6.84;61.86;99523.56;5029148;28;20025;-87
2021/11/28 01:50:12;;;;;;;21.60;13.63;;;;;;;6.79;62.27;99520.84;5027635;28;20383;-87
2021/11/28 01:52:38;;;;;;;19.35;11.85;;;;;;;6.73;62.58;99523.72;5023752;28;20025;-87
2021/11/28 01:55:09;;;;;;;24.42;13.60;;;;;;;6.68;62.29;99519.16;5030586;28;20029;-87
2021/11/28 01:57:36;;;;;;;20.67;12.07;;;;;;;6.64;62.40;99518.03;5024058;28;20022;-87
2021/11/28 02:00:50;;;;;;;21.40;12.43;;;;;;;6.48;62.71;99521.63;5028525;28;20025;-88
2021/11/28 02:03:18;;;;;;;20.83;11.95;;;;;;;6.46;63.14;99521.03;5025431;28;20030;-88
2021/11/28 02:05:47;;;;;;;22.10;12.38;;;;;;;6.42;62.85;99527.94;5018082;28;20049;-88
2021/11/28 02:08:12;;;;;;;22.50;12.55;;;;;;;6.39;62.91;99526.56;5014624;28;20026;-89
2021/11/28 02:10:38;;;;;;;24.20;13.18;;;;;;;6.30;63.35;99522.75;5027760;28;20022;-88
2021/11/28 02:13:04;;;;;;;23.23;13.20;;;;;;;6.24;63.42;99526.41;5024674;28;20471;-88
2021/11/28 02:15:30;;;;;;;21.35;12.82;;;;;;;6.21;63.72;99517.06;5026992;28;20557;-89
2021/11/28 02:17:57;;;;;;;22.15;12.40;;;;;;;6.20;63.49;99512.81;5023755;28;20025;-87
2021/11/28 02:20:26;;;;;;;25.33;13.65;;;;;;;6.15;63.68;99511.94;5032287;28;20033;-87
2021/11/28 02:22:53;;;;;;;23.25;12.10;;;;;;;6.12;63.64;99515.13;5033741;28;20072;-88
2021/11/28 02:25:19;;;;;;;21.52;12.75;;;;;;;6.07;63.98;99516.63;5033724;28;20025;-87
2021/11/28 02:27:45;;;;;;;25.70;13.25;;;;;;;6.03;64.04;99514.72;5033878;28;20022;-88
2021/11/28 02:30:17;;;;;;;24.15;13.70;;;;;;;5.96;64.04;99514.13;5023726;28;20088;-88
2021/11/28 02:32:47;;;;;;;25.60;12.70;;;;;;;5.90;64.35;99509.78;5028635;28;20553;-87
2021/11/28 02:35:15;;;;;;;23.50;12.73;;;;;;;5.88;64.29;99509.19;5024718;28;20033;-87
2021/11/28 02:37:42;;;;;;;23.08;13.65;;;;;;;5.86;64.53;99503.31;5031928;28;20071;-87
2021/11/28 02:40:12;;;;;;;23.00;13.95;;;;;;;5.85;64.37;99507.03;5023019;28;20032;-87
2021/11/28 02:42:38;;;;;;;24.20;13.25;;;;;;;5.86;64.40;99508.63;5027420;28;20578;-87
2021/11/28 02:45:05;;;;;;;24.42;12.93;;;;;;;5.84;64.13;99508.09;5026485;28;20075;-87
2021/11/28 02:47:30;;;;;;;24.65;13.30;;;;;;;5.83;63.95;99515.25;5036918;28;20018;-87
2021/11/28 02:49:56;;;;;;;22.15;12.30;;;;;;;5.83;64.16;99527.75;5025731;28;20036;-87
2021/11/28 02:52:21;;;;;;;21.42;12.18;;;;;;;5.79;64.23;99524.78;5029458;28;20037;-87
2021/11/28 02:54:47;;;;;;;22.50;12.52;;;;;;;5.79;64.36;99531.94;5031929;28;20026;-88
2021/11/28 02:57:13;;;;;;;23.52;12.38;;;;;;;5.73;64.39;99529.22;5025139;28;20021;-87
2021/11/28 02:59:39;;;;;;;23.02;12.80;;;;;;;5.71;64.25;99536.63;5017694;28;20037;-87
2021/11/28 03:02:05;;;;;;;25.35;13.35;;;;;;;5.66;64.31;99525.94;5027164;28;20017;-87
2021/11/28 03:04:31;;;;;;;23.30;13.13;;;;;;;5.62;64.60;99532.78;5017322;28;20032;-87
2021/11/28 03:06:57;;;;;;;20.73;12.55;;;;;;;5.59;64.57;99532.50;5029177;28;20021;-87
2021/11/28 03:09:22;;;;;;;25.02;13.75;;;;;;;5.56;64.39;99539.06;5019321;28;20041;-87
2021/11/28 03:11:48;;;;;;;25.23;14.20;;;;;;;5.50;64.91;99540.06;5017520;28;20029;-87
2021/11/28 03:14:13;;;;;;;22.63;12.27;;;;;;;5.46;65.07;99544.25;5022500;28;20542;-86
2021/11/28 03:16:39;;;;;;;22.65;12.60;;;;;;;5.42;65.14;99546.59;5032713;28;20017;-88
2021/11/28 03:19:06;;;;;;;20.95;12.10;;;;;;;5.42;65.02;99549.25;5023007;28;20037;-87
2021/11/28 03:21:33;;;;;;;23.17;12.98;;;;;;;5.41;64.96;99546.84;5012424;28;20376;-87
2021/11/28 03:24:04;;;;;;;24.65;13.85;;;;;;;5.38;65.27;99549.97;5027564;28;20545;-87
2021/11/28 03:26:38;;;;;;;21.88;13.13;;;;;;;5.36;64.99;99549.41;5028149;28;20030;-86
2021/11/28 03:29:15;;;;;;;24.35;12.93;;;;;;;5.32;65.36;99564.22;5028739;28;20029;-88
2021/11/28 03:31:45;;;;;;;23.70;13.43;;;;;;;5.31;65.26;99567.94;5025758;28;20022;-88
2021/11/28 03:34:13;;;;;;;24.95;13.50;;;;;;;5.29;65.50;99564.72;5015607;28;20041;-88
2021/11/28 03:36:51;;;;;;;25.40;13.95;;;;;;;5.23;65.59;99565.69;5029916;28;20025;-88
2021/11/28 03:39:20;;;;;;;29.33;14.45;;;;;;;5.20;65.53;99566.16;5031715;28;20029;-87
2021/11/28 03:42:03;;;;;;;26.20;13.63;;;;;;;5.12;65.98;99559.41;5018757;28;20490;-87
2021/11/28 03:44:30;;;;;;;26.02;14.13;;;;;;;5.13;65.82;99553.84;5024197;28;20100;-87
2021/11/28 03:46:55;;;;;;;25.27;13.77;;;;;;;5.11;65.79;99560.44;5023498;28;20025;-87
2021/11/28 03:49:21;;;;;;;24.23;13.35;;;;;;;5.08;66.17;99556.41;5029836;28;20048;-88
2021/11/28 03:51:47;;;;;;;24.83;13.45;;;;;;;5.06;66.03;99555.88;5025675;28;20025;-87
2021/11/28 03:54:12;;;;;;;28.20;13.98;;;;;;;5.03;66.10;99553.69;5028218;28;20033;-88
2021/11/28 03:56:38;;;;;;;23.38;13.18;;;;;;;4.99;66.50;99554.38;5041871;28;20026;-87
2021/11/28 03:59:04;;;;;;;21.58;12.65;;;;;;;4.94;66.87;99554.31;5019120;28;20395;-87
2021/11/28 04:01:30;;;;;;;27.30;14.00;;;;;;;4.91;66.77;99547.63;5026591;28;20034;-88
2021/11/28 04:03:56;;;;;;;25.92;13.63;;;;;;;4.87;66.87;99551.81;5031014;28;20092;-88
2021/11/28 04:06:22;;;;;;;26.52;13.32;;;;;;;4.86;66.77;99550.22;5033024;28;20022;-87
2021/11/28 04:08:48;;;;;;;27.23;14.02;;;;;;;4.86;67.08;99566.16;5033041;28;20037;-87
2021/11/28 04:11:13;;;;;;;25.40;13.88;;;;;;;4.83;67.21;99554.13;5021728;28;20029;-87
2021/11/28 04:13:39;;;;;;;26.60;14.82;;;;;;;4.77;67.29;99559.59;5029469;28;20033;-87
2021/11/28 04:16:11;;;;;;;26.10;13.38;;;;;;;4.73;67.47;99561.13;5026074;28;20030;-87
2021/11/28 04:18:38;;;;;;;26.25;13.02;;;;;;;4.76;67.30;99563.31;5022461;28;20029;-87
2021/11/28 04:21:04;;;;;;;24.83;13.95;;;;;;;4.75;67.64;99562.50;5028905;28;20095;-88
2021/11/28 04:23:29;;;;;;;25.95;14.07;;;;;;;4.74;67.68;99562.75;5021496;28;20026;-87
2021/11/28 04:25:55;;;;;;;22.83;13.93;;;;;;;4.72;67.76;99570.94;5024188;28;20028;-86
2021/11/28 04:28:25;;;;;;;24.73;13.10;;;;;;;4.72;67.45;99570.94;5019648;28;20480;-87
2021/11/28 04:30:51;;;;;;;23.30;12.95;;;;;;;4.75;67.81;99565.16;5028603;28;20029;-87
2021/11/28 04:33:17;;;;;;;23.67;12.77;;;;;;;4.76;67.67;99577.38;5025977;28;20030;-87
2021/11/28 04:35:44;;;;;;;26.15;12.63;;;;;;;4.76;67.69;99577.38;5024226;28;20029;-88
2021/11/28 04:38:09;;;;;;;23.27;13.10;;;;;;;4.71;68.01;99579.13;5027430;28;20052;-87
2021/11/28 04:40:35;;;;;;;26.15;14.32;;;;;;;4.68;67.66;99579.63;5019842;28;20022;-87
2021/11/28 04:43:01;;;;;;;25.35;13.95;;;;;;;4.67;67.28;99580.63;5032398;28;20090;-87
2021/11/28 04:45:26;;;;;;;26.05;14.07;;;;;;;4.67;67.71;99585.94;5023261;28;20017;-87
2021/11/28 04:47:52;;;;;;;24.58;13.25;;;;;;;4.65;68.05;99588.03;5028136;28;20033;-86
2021/11/28 04:50:18;;;;;;;25.05;14.00;;;;;;;4.64;67.98;99595.19;5028239;28;20037;-87
2021/11/28 04:52:43;;;;;;;26.80;14.75;;;;;;;4.60;68.19;99593.25;5017864;28;20029;-87
2021/11/28 04:55:11;;;;;;;25.17;13.55;;;;;;;4.57;68.39;99599.84;5011161;28;20017;-86
2021/11/28 04:57:40;;;;;;;25.20;14.00;;;;;;;4.54;68.36;99593.16;5026297;28;20120;-88
2021/11/28 05:00:12;;;;;;;24.83;13.00;;;;;;;4.52;68.83;99592.59;5031185;28;20025;-87
2021/11/28 05:02:39;;;;;;;27.17;13.32;;;;;;;4.52;68.73;99592.59;5012729;28;20032;-88
2021/11/28 05:05:06;;;;;;;27.52;12.98;;;;;;;4.50;68.73;99584.06;5011474;28;20037;-87
2021/11/28 05:07:31;;;;;;;25.95;14.27;;;;;;;4.52;68.76;99589.13;5014040;28;20017;-88
2021/11/28 05:09:57;;;;;;;24.75;13.80;;;;;;;4.53;69.16;99583.59;5021404;28;20103;-88
2021/11/28 05:12:23;;;;;;;23.65;13.10;;;;;;;4.55;69.11;99586.81;5026754;28;20033;-88
2021/11/28 05:14:48;;;;;;;22.48;12.57;;;;;;;4.58;68.95;99592.69;5025132;28;20073;-87
2021/11/28 05:17:14;;;;;;;23.40;12.50;;;;;;;4.60;69.29;99593.25;5022298;28;20033;-87
2021/11/28 05:19:39;;;;;;;24.40;12.60;;;;;;;4.60;69.30;99593.25;5024670;28;20399;-87
2021/11/28 05:22:05;;;;;;;21.88;12.00;;;;;;;4.62;69.30;99588.50;5023114;28;20064;-88
2021/11/28 05:24:31;;;;;;;23.70;13.07;;;;;;;4.61;69.10;99590.34;5023327;28;20452;-87
2021/11/28 05:26:56;;;;;;;24.38;13.15;;;;;;;4.62;68.94;99589.31;5012298;28;20028;-87
2021/11/28 05:29:23;;;;;;;27.73;13.65;;;;;;;4.64;69.08;99592.53;5011096;28;20032;-88
2021/11/28 05:31:48;;;;;;;23.33;13.40;;;;;;;4.65;68.99;99590.69;5011413;28;20030;-87
2021/11/28 05:34:14;;;;;;;27.92;13.25;;;;;;;4.64;69.40;99599.69;5011352;28;20132;-88
2021/11/28 05:36:39;;;;;;;24.00;12.63;;;;;;;4.64;69.47;99599.69;5019950;28;20018;-88
2021/11/28 05:39:05;;;;;;;23.73;13.00;;;;;;;4.62;69.44;99601.78;5020063;28;20053;-88
2021/11/28 05:41:31;;;;;;;23.20;12.65;;;;;;;4.60;69.36;99620.59;5027431;28;20101;-88
2021/11/28 05:43:56;;;;;;;23.33;12.18;;;;;;;4.53;69.62;99630.53;5022830;28;20028;-89
2021/11/28 05:46:22;;;;;;;24.60;12.70;;;;;;;4.48;70.01;99635.72;5030189;28;20026;-87
2021/11/28 05:48:47;;;;;;;23.40;12.57;;;;;;;4.47;69.74;99628.81;5018291;28;20032;-90
2021/11/28 05:51:13;;;;;;;25.58;13.60;;;;;;;4.47;69.71;99626.97;5034265;28;20112;-87
2021/11/28 05:53:39;;;;;;;27.20;14.40;;;;;;;4.44;69.93;99622.13;5021715;28;20025;-87
2021/11/28 05:56:05;;;;;;;22.98;13.40;;;;;;;4.42;69.79;99623.41;5030652;28;20088;-89
2021/11/28 05:58:30;;;;;;;24.98;12.40;;;;;;;4.40;69.78;99615.69;5023329;28;20025;-86
2021/11/28 06:00:57;;;;;;;25.95;13.13;;;;;;;4.37;69.91;99613.50;5024136;28;20046;-86
2021/11/28 06:03:23;;;;;;;24.88;12.35;;;;;;;4.36;69.85;99614.56;5019624;28;20124;-86
2021/11/28 06:05:49;;;;;;;28.52;13.57;;;;;;;4.34;70.00;99613.97;5020020;28;20038;-87
2021/11/28 06:08:14;;;;;;;25.50;12.50;;;;;;;4.33;69.89;99614.22;5027096;28;20092;-86
2021/11/28 06:10:43;;;;;;;25.15;13.50;;;;;;;4.31;69.88;99616.28;5029302;28;20087;-86
2021/11/28 06:13:08;;;;;;;21.98;12.50;;;;;;;4.29;69.71;99621.00;5028895;28;20080;-86
2021/11/28 06:15:34;;;;;;;22.65;10.93;;;;;;;4.23;69.96;99618.25;5021679;28;20025;-86
2021/11/28 06:17:59;;;;;;;24.75;13.15;;;;;;;4.20;69.67;99615.28;5031643;28;20032;-86
2021/11/28 06:20:25;;;;;;;22.35;11.95;;;;;;;4.17;69.77;99618.41;5025318;28;20036;-86
2021/11/28 06:22:52;;;;;;;22.30;10.65;;;;;;;4.16;69.69;99619.44;5020879;28;20120;-85
2021/11/28 06:25:19;;;;;;;24.25;12.68;;;;;;;4.13;69.42;99617.22;5028730;28;20436;-86
2021/11/28 06:27:44;;;;;;;24.17;12.52;;;;;;;4.11;69.38;99624.63;5027311;28;20030;-85
2021/11/28 06:30:11;;;;;;;22.42;11.77;;;;;;;4.07;69.55;99621.63;5019052;28;20591;-86
2021/11/28 06:32:37;;;;;;;26.75;12.32;;;;;;;4.04;69.39;99618.66;5029459;28;20083;-85
2021/11/28 06:35:03;;;;;;;23.30;13.13;;;;;;;4.00;69.44;99620.16;5022712;28;20029;-85
2021/11/28 06:37:29;;;;;;;24.63;11.77;;;;;;;3.98;69.25;99630.19;5029577;28;20018;-85
2021/11/28 06:39:54;;;;;;;26.55;11.82;;;;;;;3.93;69.34;99636.97;5029036;28;20029;-85
2021/11/28 06:42:20;;;;;;;22.00;12.15;;;;;;;3.89;69.15;99633.16;5022772;28;20030;-85
2021/11/28 06:44:45;;;;;;;21.65;11.23;;;;;;;3.85;69.50;99629.38;5028590;28;20398;-84
2021/11/28 06:47:12;;;;;;;20.33;10.95;;;;;;;3.81;69.40;99641.47;5021433;28;20376;-85
2021/11/28 06:49:38;;;;;;;22.38;12.05;;;;;;;3.76;69.28;99649.28;5027358;28;20499;-84
2021/11/28 06:52:03;;;;;;;18.65;10.07;;;;;;;3.72;69.43;99650.78;5024854;28;20037;-83
2021/11/28 06:54:29;;;;;;;19.25;9.98;;;;;;;3.68;69.36;99652.28;5037110;28;20027;-85
2021/11/28 06:56:55;;;;;;;17.77;10.70;;;;;;;3.63;69.44;99654.84;5024189;28;20029;-84
2021/11/28 06:59:21;;;;;;;19.98;11.05;;;;;;;3.60;69.56;99652.66;5027146;28;20641;-84
2021/11/28 07:01:49;;;;;;;19.75;11.15;;;;;;;3.56;69.10;99654.13;5028680;28;20052;-83
2021/11/28 07:04:15;;;;;;;21.35;11.63;;;;;;;3.53;69.75;99659.88;5024422;28;20518;-84
2021/11/28 07:06:41;;;;;;;19.90;10.52;;;;;;;3.49;69.46;99664.03;5022008;28;20033;-84
2021/11/28 07:09:06;;;;;;;19.05;11.90;;;;;;;3.45;69.39;99658.38;5019660;28;20491;-84
2021/11/28 07:11:32;;;;;;;21.40;10.68;;;;;;;3.43;69.71;99657.00;5018269;28;20036;-84
2021/11/28 07:13:58;;;;;;;21.10;10.70;;;;;;;3.41;69.51;99664.34;5022310;28;20032;-83
2021/11/28 07:16:23;;;;;;;24.77;12.65;;;;;;;3.38;69.82;99657.66;5025816;28;20160;-84
2021/11/28 07:18:49;;;;;;;26.27;13.73;;;;;;;3.33;69.67;99655.69;5021159;28;20116;-84
2021/11/28 07:21:16;;;;;;;22.77;12.57;;;;;;;3.31;69.85;99667.56;5025470;28;20079;-85
2021/11/28 07:23:42;;;;;;;28.02;12.50;;;;;;;3.28;69.78;99666.16;5027233;28;20025;-83
2021/11/28 07:26:08;;;;;;;24.70;12.70;;;;;;;3.21;70.13;99670.75;5018964;28;20033;-83
2021/11/28 07:28:34;;;;;;;21.90;10.85;;;;;;;3.18;70.29;99681.78;5023145;28;20403;-83
2021/11/28 07:31:01;;;;;;;25.77;13.15;;;;;;;3.15;70.70;99674.28;5017127;28;20105;-83
2021/11/28 07:33:26;;;;;;;27.67;12.82;;;;;;;3.13;70.70;99673.72;5014052;28;20040;-83
2021/11/28 07:35:52;;;;;;;31.20;13.77;;;;;;;3.12;70.91;99680.03;5028731;28;20125;-83
2021/11/28 07:38:17;;;;;;;25.55;13.20;;;;;;;3.11;71.02;99685.56;5026281;28;20069;-84
2021/11/28 07:40:44;;;;;;;26.27;12.48;;;;;;;3.12;70.98;99682.69;5021738;28;20029;-84
2021/11/28 07:43:11;;;;;;;24.80;12.60;;;;;;;3.15;71.04;99686.72;5019303;28;20067;-84
2021/11/28 07:45:36;;;;;;;20.98;11.50;;;;;;;3.17;70.83;99685.47;5023696;28;20030;-84
2021/11/28 07:48:02;;;;;;;22.88;12.32;;;;;;;3.20;70.89;99692.94;5024670;28;20075;-84
2021/11/28 07:50:28;;;;;;;23.55;12.30;;;;;;;3.22;70.80;99704.13;5021734;28;21058;-85
2021/11/28 07:52:54;;;;;;;25.95;12.15;;;;;;;3.24;70.99;99706.56;5019531;28;20025;-84
2021/11/28 07:55:19;;;;;;;25.67;13.15;;;;;;;3.25;71.04;99697.59;5026681;28;20048;-84
2021/11/28 07:57:46;;;;;;;26.02;12.60;;;;;;;3.26;71.16;99705.31;5026492;28;20018;-84
2021/11/28 08:00:12;;;;;;;23.77;12.52;;;;;;;3.30;71.01;99695.06;5023054;28;20036;-85
2021/11/28 08:02:38;;;;;;;28.15;13.57;;;;;;;3.32;71.34;99703.59;5022241;28;20025;-84
2021/11/28 08:05:05;;;;;;;25.75;13.23;;;;;;;3.34;71.29;99697.03;5022123;28;20478;-85
2021/11/28 08:07:31;;;;;;;26.73;13.63;;;;;;;3.37;71.26;99694.97;5022709;28;20113;-84
2021/11/28 08:09:57;;;;;;;25.70;13.07;;;;;;;3.40;71.12;99691.84;5020632;28;20104;-84
2021/11/28 08:12:23;;;;;;;25.83;13.85;;;;;;;3.40;71.54;99689.19;5027164;28;20056;-85
2021/11/28 08:14:53;;;;;;;27.13;14.68;;;;;;;3.38;71.65;99685.97;5026304;28;20614;-85
2021/11/28 08:17:19;;;;;;;26.23;13.43;;;;;;;3.40;71.56;99694.50;5019950;28;20029;-85
2021/11/28 08:19:44;;;;;;;26.98;12.68;;;;;;;3.42;71.91;99695.09;5015905;28;20022;-84
2021/11/28 08:22:11;;;;;;;24.17;12.13;;;;;;;3.45;71.76;99703.41;5036561;28;20514;-85
2021/11/28 08:24:38;;;;;;;28.08;13.43;;;;;;;3.47;71.59;99713.75;5012489;28;20434;-85
2021/11/28 08:27:04;;;;;;;29.55;13.45;;;;;;;3.42;72.70;99718.94;5020249;28;20026;-86
2021/11/28 08:29:32;;;;;;;28.85;13.90;;;;;;;3.41;72.46;99714.66;5019852;28;20057;-85
2021/11/28 08:31:57;;;;;;;28.02;13.60;;;;;;;3.40;72.21;99721.78;5029275;28;20143;-86
2021/11/28 08:34:24;;;;;;;25.55;14.05;;;;;;;3.41;72.62;99730.53;5024011;28;20108;-86
2021/11/28 08:36:49;;;;;;;30.60;13.23;;;;;;;3.36;72.99;99725.91;5024770;28;20021;-86
2021/11/28 08:39:16;;;;;;;28.10;14.27;;;;;;;3.36;73.04;99728.56;5027673;28;20041;-85
2021/11/28 08:41:41;;;;;;;28.52;13.63;;;;;;;3.37;73.28;99726.72;5026631;28;20021;-86
2021/11/28 08:44:07;;;;;;;28.63;12.98;;;;;;;3.41;73.18;99731.38;5023189;28;20507;-89
2021/11/28 08:46:33;;;;;;;29.00;13.32;;;;;;;3.45;73.36;99729.06;5015527;28;20026;-85
2021/11/28 08:48:59;;;;;;;23.00;12.30;;;;;;;3.48;72.94;99728.63;5027339;28;20040;-85
2021/11/28 08:51:38;;;;;;;27.80;13.88;;;;;;;3.46;73.14;99734.13;5026733;28;20021;-86
2021/11/28 08:54:04;;;;;;;30.58;14.00;;;;;;;3.51;73.22;99734.25;5024098;28;20040;-86
2021/11/28 08:56:30;;;;;;;25.75;13.48;;;;;;;3.55;73.15;99729.31;5023207;28;20021;-86
2021/11/28 08:58:56;;;;;;;29.73;13.55;;;;;;;3.57;73.13;99732.53;5024037;28;20022;-86
2021/11/28 09:01:27;;;;;;;28.45;13.55;;;;;;;3.58;72.88;99748.19;5027576;28;20047;-86
2021/11/28 09:03:53;;;;;;;30.40;14.75;;;;;;;3.62;73.13;99753.88;5020437;28;20543;-86
2021/11/28 09:06:18;;;;;;;26.63;14.25;;;;;;;3.63;73.41;99756.28;5026573;28;20030;-86
2021/11/28 09:08:45;;;;;;;28.45;14.05;;;;;;;3.61;73.50;99750.41;5023016;28;20041;-86
2021/11/28 09:11:11;;;;;;;30.50;14.30;;;;;;;3.66;73.48;99754.22;5023858;28;20120;-86
2021/11/28 09:13:37;;;;;;;27.67;13.85;;;;;;;3.65;74.03;99761.38;5024173;28;20152;-86
2021/11/28 09:16:03;;;;;;;29.23;14.43;;;;;;;3.66;74.23;99754.22;5019062;28;20539;-86
2021/11/28 09:18:37;;;;;;;29.48;14.52;;;;;;;3.70;74.14;99758.84;5028784;28;20036;-86
2021/11/28 09:21:02;;;;;;;26.17;13.55;;;;;;;3.74;73.92;99753.88;5028991;28;20056;-86
2021/11/28 09:26:13;;;;;;;33.55;14.90;;;;;;;3.82;73.88;99749.06;5023396;28;20637;-86
2021/11/28 09:28:40;;;;;;;32.33;15.45;;;;;;;3.87;73.68;99751.03;5022323;28;20034;-86
2021/11/28 09:31:10;;;;;;;29.80;14.90;;;;;;;3.89;73.76;99747.13;5020203;28;20088;-89
2021/11/28 09:33:50;;;;;;;29.00;14.50;;;;;;;3.89;73.47;99746.31;5020052;28;20057;-87
2021/11/28 09:36:18;;;;;;;28.90;14.40;;;;;;;3.99;73.89;99745.75;5023685;28;20033;-88
2021/11/28 09:38:44;;;;;;;27.17;13.73;;;;;;;4.06;73.70;99735.84;5018717;28;21038;-87
2021/11/28 09:41:12;;;;;;;26.20;13.57;;;;;;;4.12;74.05;99724.31;5027746;28;20033;-87
2021/11/28 09:43:42;;;;;;;26.35;14.13;;;;;;;4.18;73.90;99732.16;5028429;28;20084;-87
2021/11/28 09:46:09;;;;;;;26.80;13.38;;;;;;;4.27;73.97;99731.81;5035474;28;20029;-85
2021/11/28 09:48:36;;;;;;;29.90;13.57;;;;;;;4.26;74.16;99731.00;5034395;28;20124;-86
2021/11/28 09:51:03;;;;;;;22.63;13.05;;;;;;;4.28;73.65;99728.13;5026188;28;20036;-88
2021/11/28 09:53:48;;;;;;;24.40;13.15;;;;;;;4.23;74.00;99723.50;5031802;28;20025;-86
2021/11/28 09:56:13;;;;;;;24.48;12.75;;;;;;;4.32;73.83;99714.19;5024990;28;20060;-85
2021/11/28 09:58:39;;;;;;;27.60;12.55;;;;;;;4.40;73.77;99708.50;5031287;28;20460;-85
2021/11/28 10:01:05;;;;;;;27.20;12.38;;;;;;;4.49;73.93;99709.78;5030791;28;20506;-86
2021/11/28 10:03:31;;;;;;;22.45;11.63;;;;;;;4.61;73.83;99711.59;5022987;28;20045;-85
2021/11/28 10:05:57;;;;;;;23.80;13.57;;;;;;;4.73;74.08;99699.09;5028415;28;20108;-85
2021/11/28 10:08:24;;;;;;;22.98;12.55;;;;;;;4.83;73.65;99708.06;5027738;28;20108;-88
2021/11/28 10:11:19;;;;;;;24.25;12.60;;;;;;;4.85;73.74;99697.22;5026194;28;20101;-85
2021/11/28 10:13:46;;;;;;;26.92;13.50;;;;;;;4.93;73.75;99701.34;5016841;28;20030;-86
2021/11/28 10:16:13;;;;;;;25.38;13.52;;;;;;;4.94;73.82;99695.00;5020982;28;20025;-85
2021/11/28 10:18:46;;;;;;;22.88;13.00;;;;;;;4.95;73.57;99702.72;5016733;28;20064;-86
2021/11/28 10:21:12;;;;;;;21.52;12.15;;;;;;;5.02;73.89;99699.91;5024998;28;20029;-85
2021/11/28 10:24:08;;;;;;;23.13;12.65;;;;;;;5.04;73.61;99700.50;5027792;28;20026;-85
2021/11/28 10:26:38;;;;;;;26.17;12.07;;;;;;;5.20;73.65;99704.22;5033234;28;20034;-86
2021/11/28 10:29:15;;;;;;;25.95;12.90;;;;;;;5.27;73.34;99700.41;5027598;28;20030;-85
2021/11/28 10:31:53;;;;;;;21.10;11.13;;;;;;;5.27;73.40;99700.41;5026635;28;20442;-86
2021/11/28 10:34:41;;;;;;;22.10;12.10;;;;;;;5.26;73.30;99697.97;5024630;28;20018;-89
2021/11/28 10:37:16;;;;;;;26.67;12.40;;;;;;;5.23;73.03;99696.63;5027233;28;20029;-86
2021/11/28 10:40:02;;;;;;;21.67;11.35;;;;;;;5.22;73.37;99691.53;5029750;28;20028;-87
2021/11/28 10:42:31;;;;;;;21.08;11.63;;;;;;;5.37;72.81;99689.94;5029363;28;20087;-87
2021/11/28 10:45:21;;;;;;;20.55;12.05;;;;;;;5.49;72.88;99691.72;5032871;28;20075;-86
2021/11/28 10:48:07;;;;;;;22.40;11.20;;;;;;;5.62;72.49;99681.59;5020987;28;20029;-88
2021/11/28 10:50:37;;;;;;;22.13;10.95;;;;;;;5.81;71.97;99694.66;5033251;28;20053;-88
2021/11/28 10:53:05;;;;;;;19.58;10.18;;;;;;;5.88;71.72;99687.31;5033166;28;20021;-88
2021/11/28 10:55:42;;;;;;;19.48;10.98;;;;;;;5.93;71.32;99690.09;5013102;28;20396;-87
2021/11/28 10:58:17;;;;;;;17.05;9.75;;;;;;;6.04;71.29;99687.31;5019466;28;20079;-89
2021/11/28 11:00:45;;;;;;;16.55;9.43;;;;;;;6.14;71.38;99686.69;5019868;28;20032;-86
2021/11/28 11:03:17;;;;;;;20.10;10.10;;;;;;;6.24;70.68;99686.00;5029137;28;20589;-86
2021/11/28 11:05:44;;;;;;;20.27;9.77;;;;;;;6.34;70.30;99688.81;5018858;28;20044;-86
2021/11/28 11:08:15;;;;;;;15.20;9.70;;;;;;;6.41;70.25;99684.09;5029016;28;20602;-86
2021/11/28 11:10:47;;;;;;;16.15;9.52;;;;;;;6.47;69.99;99687.66;5019417;28;20222;-89
2021/11/28 11:13:27;;;;;;;20.95;9.90;;;;;;;6.53;69.49;99689.31;5032695;28;20028;-87
2021/11/28 11:15:58;;;;;;;15.73;9.88;;;;;;;6.65;69.52;99690.81;5034312;28;20510;-88
2021/11/28 11:18:23;;;;;;;20.10;10.25;;;;;;;6.71;69.06;99688.19;5032581;28;20033;-91
2021/11/28 11:20:52;;;;;;;22.00;10.20;;;;;;;6.57;68.95;99685.91;5032728;28;20025;-87
2021/11/28 11:23:36;;;;;;;19.08;10.38;;;;;;;6.45;68.79;99692.38;5032756;28;20629;-89
2021/11/28 11:26:20;;;;;;;19.97;10.33;;;;;;;6.38;69.10;99686.44;5033061;28;20502;-89
2021/11/28 11:29:03;;;;;;;18.00;9.88;;;;;;;6.34;69.16;99686.16;5032529;28;20040;-88
2021/11/28 11:31:55;;;;;;;17.73;10.07;;;;;;;6.30;69.36;99690.34;5032458;28;20056;-87
2021/11/28 11:34:44;;;;;;;19.42;10.98;;;;;;;6.32;69.66;99691.72;5032452;28;20029;-87